sensor_id;sensor_type;location;lat;lon;timestamp;P1;durP1;ratioP1;P2;durP2;ratioP2
28481;SDS011;15703;49.588;6.260;2023-07-31T00:02:16;5.97;;;2.60;;
28481;SDS011;15703;49.588;6.260;2023-07-31T00:04:38;5.68;;;2.58;;
28481;SDS011;15703;49.588;6.260;2023-07-31T00:07:01;5.60;;;2.63;;
28481;SDS011;15703;49.588;6.260;2023-07-31T00:09:25;6.28;;;2.78;;
28481;SDS011;15703;49.588;6.260;2023-07-31T00:11:47;4.72;;;3.08;;
28481;SDS011;15703;49.588;6.260;2023-07-31T00:14:10;5.03;;;2.83;;
28481;SDS011;15703;49.588;6.260;2023-07-31T00:16:32;5.22;;;2.90;;
28481;SDS011;15703;49.588;6.260;2023-07-31T00:18:55;7.15;;;2.65;;
28481;SDS011;15703;49.588;6.260;2023-07-31T00:21:17;4.97;;;3.00;;
28481;SDS011;15703;49.588;6.260;2023-07-31T00:23:39;6.00;;;2.70;;
28481;SDS011;15703;49.588;6.260;2023-07-31T00:26:01;7.53;;;2.70;;
28481;SDS011;15703;49.588;6.260;2023-07-31T00:28:25;5.55;;;3.00;;
28481;SDS011;15703;49.588;6.260;2023-07-31T00:30:48;6.68;;;3.15;;
28481;SDS011;15703;49.588;6.260;2023-07-31T00:33:11;6.20;;;2.72;;
28481;SDS011;15703;49.588;6.260;2023-07-31T00:35:33;6.32;;;3.50;;
28481;SDS011;15703;49.588;6.260;2023-07-31T00:37:56;5.47;;;3.10;;
28481;SDS011;15703;49.588;6.260;2023-07-31T00:40:18;5.40;;;3.42;;
28481;SDS011;15703;49.588;6.260;2023-07-31T00:42:40;7.95;;;3.20;;
28481;SDS011;15703;49.588;6.260;2023-07-31T00:45:03;4.75;;;2.20;;
28481;SDS011;15703;49.588;6.260;2023-07-31T00:47:25;9.77;;;3.10;;
28481;SDS011;15703;49.588;6.260;2023-07-31T00:49:48;8.18;;;3.42;;
28481;SDS011;15703;49.588;6.260;2023-07-31T00:52:10;7.72;;;3.25;;
28481;SDS011;15703;49.588;6.260;2023-07-31T00:54:33;7.35;;;3.42;;
28481;SDS011;15703;49.588;6.260;2023-07-31T00:56:56;7.57;;;2.92;;
28481;SDS011;15703;49.588;6.260;2023-07-31T00:59:18;6.07;;;2.95;;
28481;SDS011;15703;49.588;6.260;2023-07-31T01:01:41;5.72;;;3.20;;
28481;SDS011;15703;49.588;6.260;2023-07-31T01:04:03;4.15;;;2.80;;
28481;SDS011;15703;49.588;6.260;2023-07-31T01:09:20;5.30;;;2.38;;
28481;SDS011;15703;49.588;6.260;2023-07-31T01:11:48;7.45;;;3.58;;
28481;SDS011;15703;49.588;6.260;2023-07-31T01:14:13;6.97;;;3.10;;
28481;SDS011;15703;49.588;6.260;2023-07-31T01:16:35;5.82;;;3.13;;
28481;SDS011;15703;49.588;6.260;2023-07-31T01:18:59;5.22;;;2.97;;
28481;SDS011;15703;49.588;6.260;2023-07-31T01:24:23;5.68;;;3.05;;
28481;SDS011;15703;49.588;6.260;2023-07-31T01:26:53;6.57;;;3.00;;
28481;SDS011;15703;49.588;6.260;2023-07-31T01:29:26;5.47;;;2.78;;
28481;SDS011;15703;49.588;6.260;2023-07-31T01:31:52;6.38;;;2.97;;
28481;SDS011;15703;49.588;6.260;2023-07-31T01:34:15;9.38;;;3.58;;
28481;SDS011;15703;49.588;6.260;2023-07-31T01:36:40;5.15;;;2.97;;
28481;SDS011;15703;49.588;6.260;2023-07-31T01:39:02;4.57;;;2.85;;
28481;SDS011;15703;49.588;6.260;2023-07-31T01:41:25;7.70;;;3.15;;
28481;SDS011;15703;49.588;6.260;2023-07-31T01:43:47;8.65;;;2.80;;
28481;SDS011;15703;49.588;6.260;2023-07-31T01:46:10;5.10;;;2.72;;
28481;SDS011;15703;49.588;6.260;2023-07-31T01:48:34;7.18;;;3.42;;
28481;SDS011;15703;49.588;6.260;2023-07-31T01:51:00;6.18;;;3.17;;
28481;SDS011;15703;49.588;6.260;2023-07-31T01:53:22;10.77;;;3.90;;
28481;SDS011;15703;49.588;6.260;2023-07-31T01:55:44;4.50;;;3.08;;
28481;SDS011;15703;49.588;6.260;2023-07-31T01:58:06;6.88;;;3.90;;
28481;SDS011;15703;49.588;6.260;2023-07-31T02:00:29;6.18;;;3.58;;
28481;SDS011;15703;49.588;6.260;2023-07-31T02:02:51;11.15;;;3.33;;
28481;SDS011;15703;49.588;6.260;2023-07-31T02:05:14;8.02;;;3.38;;
28481;SDS011;15703;49.588;6.260;2023-07-31T02:07:36;4.97;;;3.33;;
28481;SDS011;15703;49.588;6.260;2023-07-31T02:09:59;12.52;;;3.90;;
28481;SDS011;15703;49.588;6.260;2023-07-31T02:12:21;6.55;;;3.45;;
28481;SDS011;15703;49.588;6.260;2023-07-31T02:14:43;5.63;;;2.95;;
28481;SDS011;15703;49.588;6.260;2023-07-31T02:17:06;9.43;;;3.33;;
28481;SDS011;15703;49.588;6.260;2023-07-31T02:19:28;5.40;;;2.85;;
28481;SDS011;15703;49.588;6.260;2023-07-31T02:21:52;10.30;;;3.40;;
28481;SDS011;15703;49.588;6.260;2023-07-31T02:24:14;6.88;;;2.85;;
28481;SDS011;15703;49.588;6.260;2023-07-31T02:26:36;7.55;;;3.75;;
28481;SDS011;15703;49.588;6.260;2023-07-31T02:28:59;7.05;;;3.10;;
28481;SDS011;15703;49.588;6.260;2023-07-31T02:31:22;10.15;;;3.45;;
28481;SDS011;15703;49.588;6.260;2023-07-31T02:33:44;5.85;;;3.15;;
28481;SDS011;15703;49.588;6.260;2023-07-31T02:36:07;6.43;;;3.10;;
28481;SDS011;15703;49.588;6.260;2023-07-31T02:38:29;7.90;;;3.38;;
28481;SDS011;15703;49.588;6.260;2023-07-31T02:40:51;5.05;;;3.20;;
28481;SDS011;15703;49.588;6.260;2023-07-31T02:43:14;6.68;;;3.05;;
28481;SDS011;15703;49.588;6.260;2023-07-31T02:45:36;9.98;;;3.13;;
28481;SDS011;15703;49.588;6.260;2023-07-31T02:47:58;4.72;;;3.33;;
28481;SDS011;15703;49.588;6.260;2023-07-31T02:50:21;6.53;;;2.97;;
28481;SDS011;15703;49.588;6.260;2023-07-31T02:52:43;5.28;;;3.10;;
28481;SDS011;15703;49.588;6.260;2023-07-31T02:55:06;6.75;;;3.40;;
28481;SDS011;15703;49.588;6.260;2023-07-31T02:57:28;5.93;;;2.97;;
28481;SDS011;15703;49.588;6.260;2023-07-31T02:59:50;6.88;;;3.53;;
28481;SDS011;15703;49.588;6.260;2023-07-31T03:02:13;7.45;;;3.25;;
28481;SDS011;15703;49.588;6.260;2023-07-31T03:04:35;5.47;;;3.30;;
28481;SDS011;15703;49.588;6.260;2023-07-31T03:06:58;6.38;;;3.13;;
28481;SDS011;15703;49.588;6.260;2023-07-31T03:09:20;5.88;;;3.25;;
28481;SDS011;15703;49.588;6.260;2023-07-31T03:11:43;5.95;;;3.17;;
28481;SDS011;15703;49.588;6.260;2023-07-31T03:14:05;9.63;;;3.38;;
28481;SDS011;15703;49.588;6.260;2023-07-31T03:16:28;6.97;;;3.33;;
28481;SDS011;15703;49.588;6.260;2023-07-31T03:18:50;5.82;;;3.10;;
28481;SDS011;15703;49.588;6.260;2023-07-31T03:21:12;11.63;;;3.78;;
28481;SDS011;15703;49.588;6.260;2023-07-31T03:23:35;8.55;;;3.58;;
28481;SDS011;15703;49.588;6.260;2023-07-31T03:28:22;5.43;;;3.40;;
28481;SDS011;15703;49.588;6.260;2023-07-31T03:30:45;7.32;;;3.10;;
28481;SDS011;15703;49.588;6.260;2023-07-31T03:33:09;8.93;;;3.45;;
28481;SDS011;15703;49.588;6.260;2023-07-31T03:35:31;7.07;;;3.10;;
28481;SDS011;15703;49.588;6.260;2023-07-31T03:37:53;10.98;;;3.13;;
28481;SDS011;15703;49.588;6.260;2023-07-31T03:40:17;7.60;;;3.20;;
28481;SDS011;15703;49.588;6.260;2023-07-31T03:42:39;7.07;;;3.42;;
28481;SDS011;15703;49.588;6.260;2023-07-31T03:45:01;7.63;;;3.38;;
28481;SDS011;15703;49.588;6.260;2023-07-31T03:47:24;6.00;;;3.38;;
28481;SDS011;15703;49.588;6.260;2023-07-31T03:49:46;8.68;;;3.17;;
28481;SDS011;15703;49.588;6.260;2023-07-31T03:52:09;7.30;;;3.45;;
28481;SDS011;15703;49.588;6.260;2023-07-31T03:54:31;7.20;;;3.00;;
28481;SDS011;15703;49.588;6.260;2023-07-31T03:56:53;5.85;;;3.22;;
28481;SDS011;15703;49.588;6.260;2023-07-31T03:59:16;5.10;;;3.30;;
28481;SDS011;15703;49.588;6.260;2023-07-31T04:01:38;7.50;;;2.97;;
28481;SDS011;15703;49.588;6.260;2023-07-31T04:04:00;7.22;;;3.38;;
28481;SDS011;15703;49.588;6.260;2023-07-31T04:06:22;5.63;;;3.00;;
28481;SDS011;15703;49.588;6.260;2023-07-31T04:08:45;7.60;;;3.05;;
28481;SDS011;15703;49.588;6.260;2023-07-31T04:11:07;6.88;;;3.15;;
28481;SDS011;15703;49.588;6.260;2023-07-31T04:13:29;5.55;;;3.08;;
28481;SDS011;15703;49.588;6.260;2023-07-31T04:15:52;6.78;;;2.80;;
28481;SDS011;15703;49.588;6.260;2023-07-31T04:18:15;7.13;;;3.13;;
28481;SDS011;15703;49.588;6.260;2023-07-31T04:20:38;6.65;;;3.17;;
28481;SDS011;15703;49.588;6.260;2023-07-31T04:23:01;8.77;;;3.50;;
28481;SDS011;15703;49.588;6.260;2023-07-31T04:25:23;7.22;;;3.30;;
28481;SDS011;15703;49.588;6.260;2023-07-31T04:27:45;6.97;;;3.10;;
28481;SDS011;15703;49.588;6.260;2023-07-31T04:30:08;6.22;;;3.15;;
28481;SDS011;15703;49.588;6.260;2023-07-31T04:32:30;7.35;;;2.92;;
28481;SDS011;15703;49.588;6.260;2023-07-31T04:34:53;8.75;;;3.05;;
28481;SDS011;15703;49.588;6.260;2023-07-31T04:37:15;3.72;;;2.97;;
28481;SDS011;15703;49.588;6.260;2023-07-31T04:39:37;7.47;;;2.90;;
28481;SDS011;15703;49.588;6.260;2023-07-31T04:42:00;7.30;;;3.17;;
28481;SDS011;15703;49.588;6.260;2023-07-31T04:44:22;7.80;;;2.67;;
28481;SDS011;15703;49.588;6.260;2023-07-31T04:46:44;9.80;;;3.05;;
28481;SDS011;15703;49.588;6.260;2023-07-31T04:49:06;5.15;;;3.05;;
28481;SDS011;15703;49.588;6.260;2023-07-31T04:51:29;7.22;;;3.30;;
28481;SDS011;15703;49.588;6.260;2023-07-31T04:53:51;7.53;;;2.90;;
28481;SDS011;15703;49.588;6.260;2023-07-31T04:56:13;8.60;;;3.47;;
28481;SDS011;15703;49.588;6.260;2023-07-31T04:58:36;6.15;;;2.92;;
28481;SDS011;15703;49.588;6.260;2023-07-31T05:00:59;6.03;;;2.95;;
28481;SDS011;15703;49.588;6.260;2023-07-31T05:03:21;5.55;;;2.97;;
28481;SDS011;15703;49.588;6.260;2023-07-31T05:05:43;6.53;;;2.88;;
28481;SDS011;15703;49.588;6.260;2023-07-31T05:08:06;5.20;;;3.15;;
28481;SDS011;15703;49.588;6.260;2023-07-31T05:10:28;5.20;;;3.08;;
28481;SDS011;15703;49.588;6.260;2023-07-31T05:12:50;4.25;;;2.80;;
28481;SDS011;15703;49.588;6.260;2023-07-31T05:15:12;4.80;;;2.78;;
28481;SDS011;15703;49.588;6.260;2023-07-31T05:17:36;6.28;;;3.10;;
28481;SDS011;15703;49.588;6.260;2023-07-31T05:19:59;6.53;;;3.03;;
28481;SDS011;15703;49.588;6.260;2023-07-31T05:22:21;6.07;;;3.08;;
28481;SDS011;15703;49.588;6.260;2023-07-31T05:24:43;4.63;;;2.65;;
28481;SDS011;15703;49.588;6.260;2023-07-31T05:27:06;8.85;;;2.65;;
28481;SDS011;15703;49.588;6.260;2023-07-31T05:29:28;4.53;;;2.38;;
28481;SDS011;15703;49.588;6.260;2023-07-31T05:31:51;7.18;;;2.60;;
28481;SDS011;15703;49.588;6.260;2023-07-31T05:34:13;3.78;;;2.80;;
28481;SDS011;15703;49.588;6.260;2023-07-31T05:36:35;6.05;;;2.83;;
28481;SDS011;15703;49.588;6.260;2023-07-31T05:38:58;7.30;;;2.50;;
28481;SDS011;15703;49.588;6.260;2023-07-31T05:41:20;5.05;;;2.53;;
28481;SDS011;15703;49.588;6.260;2023-07-31T05:43:42;4.78;;;2.47;;
28481;SDS011;15703;49.588;6.260;2023-07-31T05:46:05;5.15;;;2.55;;
28481;SDS011;15703;49.588;6.260;2023-07-31T05:48:28;4.43;;;2.42;;
28481;SDS011;15703;49.588;6.260;2023-07-31T05:50:50;5.00;;;2.35;;
28481;SDS011;15703;49.588;6.260;2023-07-31T05:53:13;10.48;;;2.92;;
28481;SDS011;15703;49.588;6.260;2023-07-31T05:55:35;5.95;;;2.53;;
28481;SDS011;15703;49.588;6.260;2023-07-31T05:57:58;6.00;;;2.40;;
28481;SDS011;15703;49.588;6.260;2023-07-31T06:00:21;5.10;;;2.28;;
28481;SDS011;15703;49.588;6.260;2023-07-31T06:02:44;4.18;;;2.08;;
28481;SDS011;15703;49.588;6.260;2023-07-31T06:05:06;7.45;;;3.08;;
28481;SDS011;15703;49.588;6.260;2023-07-31T06:07:29;5.88;;;2.70;;
28481;SDS011;15703;49.588;6.260;2023-07-31T06:09:51;5.28;;;2.85;;
28481;SDS011;15703;49.588;6.260;2023-07-31T06:12:15;3.85;;;2.13;;
28481;SDS011;15703;49.588;6.260;2023-07-31T06:14:40;5.78;;;2.42;;
28481;SDS011;15703;49.588;6.260;2023-07-31T06:17:02;6.00;;;2.33;;
28481;SDS011;15703;49.588;6.260;2023-07-31T06:19:24;5.35;;;2.20;;
28481;SDS011;15703;49.588;6.260;2023-07-31T06:21:47;6.10;;;2.72;;
28481;SDS011;15703;49.588;6.260;2023-07-31T06:24:09;6.38;;;2.60;;
28481;SDS011;15703;49.588;6.260;2023-07-31T06:26:33;6.85;;;2.40;;
28481;SDS011;15703;49.588;6.260;2023-07-31T06:28:55;5.47;;;2.65;;
28481;SDS011;15703;49.588;6.260;2023-07-31T06:31:18;5.53;;;2.70;;
28481;SDS011;15703;49.588;6.260;2023-07-31T06:33:44;3.95;;;2.38;;
28481;SDS011;15703;49.588;6.260;2023-07-31T06:36:06;4.35;;;2.17;;
28481;SDS011;15703;49.588;6.260;2023-07-31T06:38:29;5.38;;;2.20;;
28481;SDS011;15703;49.588;6.260;2023-07-31T06:40:51;5.80;;;2.83;;
28481;SDS011;15703;49.588;6.260;2023-07-31T06:43:14;6.68;;;2.92;;
28481;SDS011;15703;49.588;6.260;2023-07-31T06:45:36;4.65;;;2.80;;
28481;SDS011;15703;49.588;6.260;2023-07-31T06:48:02;4.72;;;2.95;;
28481;SDS011;15703;49.588;6.260;2023-07-31T06:50:25;8.00;;;3.30;;
28481;SDS011;15703;49.588;6.260;2023-07-31T06:52:47;7.45;;;2.50;;
28481;SDS011;15703;49.588;6.260;2023-07-31T06:55:16;6.75;;;2.70;;
28481;SDS011;15703;49.588;6.260;2023-07-31T06:57:42;6.30;;;2.40;;
28481;SDS011;15703;49.588;6.260;2023-07-31T07:00:05;3.45;;;2.67;;
28481;SDS011;15703;49.588;6.260;2023-07-31T07:02:27;8.00;;;2.60;;
28481;SDS011;15703;49.588;6.260;2023-07-31T07:04:50;5.13;;;2.53;;
28481;SDS011;15703;49.588;6.260;2023-07-31T07:07:12;3.47;;;2.22;;
28481;SDS011;15703;49.588;6.260;2023-07-31T07:09:35;4.65;;;2.42;;
28481;SDS011;15703;49.588;6.260;2023-07-31T07:11:57;6.03;;;2.22;;
28481;SDS011;15703;49.588;6.260;2023-07-31T07:14:20;4.00;;;2.33;;
28481;SDS011;15703;49.588;6.260;2023-07-31T07:16:43;6.85;;;2.85;;
28481;SDS011;15703;49.588;6.260;2023-07-31T07:19:05;7.88;;;2.72;;
28481;SDS011;15703;49.588;6.260;2023-07-31T07:21:27;3.53;;;2.22;;
28481;SDS011;15703;49.588;6.260;2023-07-31T07:23:50;4.05;;;2.15;;
28481;SDS011;15703;49.588;6.260;2023-07-31T07:26:12;5.95;;;2.40;;
28481;SDS011;15703;49.588;6.260;2023-07-31T07:28:34;4.45;;;2.70;;
28481;SDS011;15703;49.588;6.260;2023-07-31T07:30:58;5.65;;;2.75;;
28481;SDS011;15703;49.588;6.260;2023-07-31T07:33:21;3.97;;;2.28;;
28481;SDS011;15703;49.588;6.260;2023-07-31T07:35:43;4.78;;;2.28;;
28481;SDS011;15703;49.588;6.260;2023-07-31T07:38:05;5.13;;;2.80;;
28481;SDS011;15703;49.588;6.260;2023-07-31T07:40:27;3.83;;;2.47;;
28481;SDS011;15703;49.588;6.260;2023-07-31T07:42:50;5.90;;;2.30;;
28481;SDS011;15703;49.588;6.260;2023-07-31T07:45:12;3.92;;;1.85;;
28481;SDS011;15703;49.588;6.260;2023-07-31T07:47:35;3.00;;;2.15;;
28481;SDS011;15703;49.588;6.260;2023-07-31T07:49:57;4.93;;;2.70;;
28481;SDS011;15703;49.588;6.260;2023-07-31T07:52:19;6.10;;;2.72;;
28481;SDS011;15703;49.588;6.260;2023-07-31T07:54:42;3.25;;;2.05;;
28481;SDS011;15703;49.588;6.260;2023-07-31T07:57:04;4.43;;;2.63;;
28481;SDS011;15703;49.588;6.260;2023-07-31T07:59:27;4.10;;;2.30;;
28481;SDS011;15703;49.588;6.260;2023-07-31T08:01:49;4.18;;;2.55;;
28481;SDS011;15703;49.588;6.260;2023-07-31T08:04:11;7.55;;;2.58;;
28481;SDS011;15703;49.588;6.260;2023-07-31T08:06:34;4.35;;;2.67;;
28481;SDS011;15703;49.588;6.260;2023-07-31T08:08:56;4.97;;;2.20;;
28481;SDS011;15703;49.588;6.260;2023-07-31T08:11:18;4.80;;;2.65;;
28481;SDS011;15703;49.588;6.260;2023-07-31T08:13:40;7.95;;;2.50;;
28481;SDS011;15703;49.588;6.260;2023-07-31T08:16:03;6.47;;;2.38;;
28481;SDS011;15703;49.588;6.260;2023-07-31T08:18:26;5.32;;;2.72;;
28481;SDS011;15703;49.588;6.260;2023-07-31T08:20:48;6.47;;;2.22;;
28481;SDS011;15703;49.588;6.260;2023-07-31T08:23:10;4.13;;;2.20;;
28481;SDS011;15703;49.588;6.260;2023-07-31T08:25:36;6.75;;;3.00;;
28481;SDS011;15703;49.588;6.260;2023-07-31T08:27:58;6.88;;;2.22;;
28481;SDS011;15703;49.588;6.260;2023-07-31T08:30:21;4.50;;;2.35;;
28481;SDS011;15703;49.588;6.260;2023-07-31T08:32:43;4.75;;;2.50;;
28481;SDS011;15703;49.588;6.260;2023-07-31T08:35:06;5.53;;;2.40;;
28481;SDS011;15703;49.588;6.260;2023-07-31T08:37:28;6.05;;;2.42;;
28481;SDS011;15703;49.588;6.260;2023-07-31T08:39:51;4.47;;;2.10;;
28481;SDS011;15703;49.588;6.260;2023-07-31T08:42:13;6.90;;;2.58;;
28481;SDS011;15703;49.588;6.260;2023-07-31T08:44:35;5.00;;;2.35;;
28481;SDS011;15703;49.588;6.260;2023-07-31T08:46:59;3.35;;;1.90;;
28481;SDS011;15703;49.588;6.260;2023-07-31T08:49:21;3.63;;;1.90;;
28481;SDS011;15703;49.588;6.260;2023-07-31T08:51:44;4.35;;;2.10;;
28481;SDS011;15703;49.588;6.260;2023-07-31T08:54:07;3.30;;;2.05;;
28481;SDS011;15703;49.588;6.260;2023-07-31T08:56:29;2.58;;;1.80;;
28481;SDS011;15703;49.588;6.260;2023-07-31T08:58:54;4.00;;;2.05;;
28481;SDS011;15703;49.588;6.260;2023-07-31T09:01:17;3.05;;;2.08;;
28481;SDS011;15703;49.588;6.260;2023-07-31T09:03:39;2.17;;;1.80;;
28481;SDS011;15703;49.588;6.260;2023-07-31T09:06:03;2.95;;;1.73;;
28481;SDS011;15703;49.588;6.260;2023-07-31T09:08:28;2.70;;;1.70;;
28481;SDS011;15703;49.588;6.260;2023-07-31T09:10:52;3.15;;;1.55;;
28481;SDS011;15703;49.588;6.260;2023-07-31T09:13:16;2.58;;;1.38;;
28481;SDS011;15703;49.588;6.260;2023-07-31T09:15:39;3.85;;;1.52;;
28481;SDS011;15703;49.588;6.260;2023-07-31T09:18:02;2.45;;;1.48;;
28481;SDS011;15703;49.588;6.260;2023-07-31T09:20:25;3.92;;;1.52;;
28481;SDS011;15703;49.588;6.260;2023-07-31T09:22:48;2.75;;;1.90;;
28481;SDS011;15703;49.588;6.260;2023-07-31T09:25:14;3.40;;;1.45;;
28481;SDS011;15703;49.588;6.260;2023-07-31T09:27:45;3.00;;;1.63;;
28481;SDS011;15703;49.588;6.260;2023-07-31T09:30:07;2.35;;;1.92;;
28481;SDS011;15703;49.588;6.260;2023-07-31T09:32:30;3.35;;;1.67;;
28481;SDS011;15703;49.588;6.260;2023-07-31T09:34:53;3.42;;;1.52;;
28481;SDS011;15703;49.588;6.260;2023-07-31T09:37:17;2.03;;;1.45;;
28481;SDS011;15703;49.588;6.260;2023-07-31T09:39:46;3.85;;;1.48;;
28481;SDS011;15703;49.588;6.260;2023-07-31T09:42:09;1.70;;;1.33;;
28481;SDS011;15703;49.588;6.260;2023-07-31T09:44:38;3.10;;;1.70;;
28481;SDS011;15703;49.588;6.260;2023-07-31T09:47:02;2.38;;;1.50;;
28481;SDS011;15703;49.588;6.260;2023-07-31T09:49:24;3.25;;;1.70;;
28481;SDS011;15703;49.588;6.260;2023-07-31T09:51:47;2.25;;;1.35;;
28481;SDS011;15703;49.588;6.260;2023-07-31T09:54:12;1.95;;;1.17;;
28481;SDS011;15703;49.588;6.260;2023-07-31T09:56:35;1.92;;;1.10;;
28481;SDS011;15703;49.588;6.260;2023-07-31T09:58:58;2.25;;;1.08;;
28481;SDS011;15703;49.588;6.260;2023-07-31T10:01:21;2.83;;;1.55;;
28481;SDS011;15703;49.588;6.260;2023-07-31T10:03:43;2.30;;;1.38;;
28481;SDS011;15703;49.588;6.260;2023-07-31T10:06:07;3.20;;;1.50;;
28481;SDS011;15703;49.588;6.260;2023-07-31T10:08:32;2.72;;;1.42;;
28481;SDS011;15703;49.588;6.260;2023-07-31T10:11:00;2.60;;;1.48;;
28481;SDS011;15703;49.588;6.260;2023-07-31T10:13:24;4.15;;;1.35;;
28481;SDS011;15703;49.588;6.260;2023-07-31T10:15:46;2.42;;;1.70;;
28481;SDS011;15703;49.588;6.260;2023-07-31T10:18:08;1.77;;;1.52;;
28481;SDS011;15703;49.588;6.260;2023-07-31T10:20:31;2.60;;;1.30;;
28481;SDS011;15703;49.588;6.260;2023-07-31T10:22:54;3.58;;;1.75;;
28481;SDS011;15703;49.588;6.260;2023-07-31T10:25:17;3.97;;;1.77;;
28481;SDS011;15703;49.588;6.260;2023-07-31T10:27:40;5.30;;;1.85;;
28481;SDS011;15703;49.588;6.260;2023-07-31T10:30:03;3.38;;;1.60;;
28481;SDS011;15703;49.588;6.260;2023-07-31T10:32:25;3.35;;;2.05;;
28481;SDS011;15703;49.588;6.260;2023-07-31T10:34:49;1.67;;;1.45;;
28481;SDS011;15703;49.588;6.260;2023-07-31T10:39:54;2.92;;;1.67;;
28481;SDS011;15703;49.588;6.260;2023-07-31T10:42:17;2.40;;;1.75;;
28481;SDS011;15703;49.588;6.260;2023-07-31T10:44:46;3.42;;;1.50;;
28481;SDS011;15703;49.588;6.260;2023-07-31T10:47:09;3.17;;;1.88;;
28481;SDS011;15703;49.588;6.260;2023-07-31T10:49:31;3.42;;;2.03;;
28481;SDS011;15703;49.588;6.260;2023-07-31T10:51:55;3.40;;;2.25;;
28481;SDS011;15703;49.588;6.260;2023-07-31T10:54:17;4.65;;;2.17;;
28481;SDS011;15703;49.588;6.260;2023-07-31T10:56:40;5.05;;;2.40;;
28481;SDS011;15703;49.588;6.260;2023-07-31T10:59:06;3.83;;;1.75;;
28481;SDS011;15703;49.588;6.260;2023-07-31T11:04:10;2.05;;;1.55;;
28481;SDS011;15703;49.588;6.260;2023-07-31T11:06:33;3.85;;;1.95;;
28481;SDS011;15703;49.588;6.260;2023-07-31T11:08:59;3.35;;;1.77;;
28481;SDS011;15703;49.588;6.260;2023-07-31T11:11:21;6.97;;;1.98;;
28481;SDS011;15703;49.588;6.260;2023-07-31T11:13:47;2.88;;;1.80;;
28481;SDS011;15703;49.588;6.260;2023-07-31T11:16:21;4.32;;;1.98;;
28481;SDS011;15703;49.588;6.260;2023-07-31T11:18:44;4.97;;;2.53;;
28481;SDS011;15703;49.588;6.260;2023-07-31T11:21:07;3.60;;;1.83;;
28481;SDS011;15703;49.588;6.260;2023-07-31T11:23:30;3.78;;;1.67;;
28481;SDS011;15703;49.588;6.260;2023-07-31T11:25:53;3.83;;;1.80;;
28481;SDS011;15703;49.588;6.260;2023-07-31T11:28:21;3.75;;;1.95;;
28481;SDS011;15703;49.588;6.260;2023-07-31T11:30:44;2.72;;;1.70;;
28481;SDS011;15703;49.588;6.260;2023-07-31T11:33:08;2.55;;;1.80;;
28481;SDS011;15703;49.588;6.260;2023-07-31T11:35:35;2.75;;;2.00;;
28481;SDS011;15703;49.588;6.260;2023-07-31T11:37:57;3.20;;;2.30;;
28481;SDS011;15703;49.588;6.260;2023-07-31T11:40:20;2.58;;;1.77;;
28481;SDS011;15703;49.588;6.260;2023-07-31T11:42:46;3.00;;;1.88;;
28481;SDS011;15703;49.588;6.260;2023-07-31T11:45:09;2.33;;;1.83;;
28481;SDS011;15703;49.588;6.260;2023-07-31T11:47:32;3.70;;;1.92;;
28481;SDS011;15703;49.588;6.260;2023-07-31T11:49:58;3.78;;;2.30;;
28481;SDS011;15703;49.588;6.260;2023-07-31T11:52:20;3.53;;;1.90;;
28481;SDS011;15703;49.588;6.260;2023-07-31T11:54:44;2.83;;;2.38;;
28481;SDS011;15703;49.588;6.260;2023-07-31T11:57:07;4.30;;;2.38;;
28481;SDS011;15703;49.588;6.260;2023-07-31T11:59:29;4.25;;;2.38;;
28481;SDS011;15703;49.588;6.260;2023-07-31T12:01:52;5.32;;;2.95;;
28481;SDS011;15703;49.588;6.260;2023-07-31T12:04:15;3.75;;;2.17;;
28481;SDS011;15703;49.588;6.260;2023-07-31T12:06:37;3.88;;;2.20;;
28481;SDS011;15703;49.588;6.260;2023-07-31T12:09:02;3.83;;;2.08;;
28481;SDS011;15703;49.588;6.260;2023-07-31T12:11:24;5.00;;;2.28;;
28481;SDS011;15703;49.588;6.260;2023-07-31T12:13:46;3.45;;;2.08;;
28481;SDS011;15703;49.588;6.260;2023-07-31T12:16:09;2.10;;;1.90;;
28481;SDS011;15703;49.588;6.260;2023-07-31T12:18:35;2.80;;;1.92;;
28481;SDS011;15703;49.588;6.260;2023-07-31T12:20:59;6.68;;;2.00;;
28481;SDS011;15703;49.588;6.260;2023-07-31T12:23:25;2.28;;;1.77;;
28481;SDS011;15703;49.588;6.260;2023-07-31T12:25:59;2.17;;;1.55;;
28481;SDS011;15703;49.588;6.260;2023-07-31T12:28:22;5.40;;;2.25;;
28481;SDS011;15703;49.588;6.260;2023-07-31T12:30:44;3.63;;;2.22;;
28481;SDS011;15703;49.588;6.260;2023-07-31T12:33:12;4.07;;;2.00;;
28481;SDS011;15703;49.588;6.260;2023-07-31T12:35:36;4.15;;;2.10;;
28481;SDS011;15703;49.588;6.260;2023-07-31T12:38:00;4.22;;;1.80;;
28481;SDS011;15703;49.588;6.260;2023-07-31T12:40:23;2.67;;;1.85;;
28481;SDS011;15703;49.588;6.260;2023-07-31T12:42:53;3.78;;;2.40;;
28481;SDS011;15703;49.588;6.260;2023-07-31T12:45:15;3.85;;;1.98;;
28481;SDS011;15703;49.588;6.260;2023-07-31T12:47:37;4.03;;;2.25;;
28481;SDS011;15703;49.588;6.260;2023-07-31T12:50:00;3.97;;;2.50;;
28481;SDS011;15703;49.588;6.260;2023-07-31T12:52:22;3.70;;;2.10;;
28481;SDS011;15703;49.588;6.260;2023-07-31T12:54:44;4.10;;;2.38;;
28481;SDS011;15703;49.588;6.260;2023-07-31T12:57:07;3.00;;;2.13;;
28481;SDS011;15703;49.588;6.260;2023-07-31T12:59:29;6.07;;;2.40;;
28481;SDS011;15703;49.588;6.260;2023-07-31T13:01:52;5.60;;;2.47;;
28481;SDS011;15703;49.588;6.260;2023-07-31T13:04:14;3.28;;;2.35;;
28481;SDS011;15703;49.588;6.260;2023-07-31T13:06:37;3.60;;;2.30;;
28481;SDS011;15703;49.588;6.260;2023-07-31T13:08:59;3.95;;;2.25;;
28481;SDS011;15703;49.588;6.260;2023-07-31T13:11:22;4.88;;;2.60;;
28481;SDS011;15703;49.588;6.260;2023-07-31T13:13:44;6.07;;;2.67;;
28481;SDS011;15703;49.588;6.260;2023-07-31T13:16:07;3.15;;;2.53;;
28481;SDS011;15703;49.588;6.260;2023-07-31T13:18:29;3.75;;;2.40;;
28481;SDS011;15703;49.588;6.260;2023-07-31T13:20:51;5.07;;;2.08;;
28481;SDS011;15703;49.588;6.260;2023-07-31T13:23:14;5.32;;;2.53;;
28481;SDS011;15703;49.588;6.260;2023-07-31T13:25:36;4.78;;;2.47;;
28481;SDS011;15703;49.588;6.260;2023-07-31T13:27:58;3.15;;;2.40;;
28481;SDS011;15703;49.588;6.260;2023-07-31T13:30:23;3.33;;;2.30;;
28481;SDS011;15703;49.588;6.260;2023-07-31T13:32:46;3.67;;;2.63;;
28481;SDS011;15703;49.588;6.260;2023-07-31T13:35:08;5.28;;;2.22;;
28481;SDS011;15703;49.588;6.260;2023-07-31T13:37:33;2.65;;;2.22;;
28481;SDS011;15703;49.588;6.260;2023-07-31T13:39:56;4.15;;;2.20;;
28481;SDS011;15703;49.588;6.260;2023-07-31T13:42:18;6.30;;;2.85;;
28481;SDS011;15703;49.588;6.260;2023-07-31T13:44:41;4.30;;;2.65;;
28481;SDS011;15703;49.588;6.260;2023-07-31T13:47:03;3.70;;;2.33;;
28481;SDS011;15703;49.588;6.260;2023-07-31T13:49:26;6.05;;;2.95;;
28481;SDS011;15703;49.588;6.260;2023-07-31T13:51:48;5.47;;;2.70;;
28481;SDS011;15703;49.588;6.260;2023-07-31T13:54:10;7.18;;;3.13;;
28481;SDS011;15703;49.588;6.260;2023-07-31T13:56:33;7.50;;;2.60;;
28481;SDS011;15703;49.588;6.260;2023-07-31T13:58:55;7.95;;;3.40;;
28481;SDS011;15703;49.588;6.260;2023-07-31T14:01:17;7.28;;;3.63;;
28481;SDS011;15703;49.588;6.260;2023-07-31T14:03:40;5.93;;;3.53;;
28481;SDS011;15703;49.588;6.260;2023-07-31T14:06:06;5.35;;;3.08;;
28481;SDS011;15703;49.588;6.260;2023-07-31T14:08:28;4.93;;;3.30;;
28481;SDS011;15703;49.588;6.260;2023-07-31T14:10:51;5.97;;;3.40;;
28481;SDS011;15703;49.588;6.260;2023-07-31T14:13:13;6.72;;;3.30;;
28481;SDS011;15703;49.588;6.260;2023-07-31T14:15:35;6.75;;;3.33;;
28481;SDS011;15703;49.588;6.260;2023-07-31T14:17:58;6.03;;;3.50;;
28481;SDS011;15703;49.588;6.260;2023-07-31T14:20:22;7.53;;;3.60;;
28481;SDS011;15703;49.588;6.260;2023-07-31T14:22:45;7.55;;;3.83;;
28481;SDS011;15703;49.588;6.260;2023-07-31T14:25:07;5.78;;;3.33;;
28481;SDS011;15703;49.588;6.260;2023-07-31T14:27:31;8.82;;;3.80;;
28481;SDS011;15703;49.588;6.260;2023-07-31T14:29:54;7.07;;;3.20;;
28481;SDS011;15703;49.588;6.260;2023-07-31T14:32:16;7.25;;;3.38;;
28481;SDS011;15703;49.588;6.260;2023-07-31T14:34:38;6.40;;;3.15;;
28481;SDS011;15703;49.588;6.260;2023-07-31T14:37:03;7.50;;;3.70;;